Time;durP1;ratioP1;P1;durP2;ratioP2;P2;SDS_P1;SDS_P2;PMS_P1;PMS_P2;Temp;Humidity;BMP_temperature;BMP_pressure;BME280_temperature;BME280_humidity;BME280_pressure;Samples;Min_cycle;Max_cycle;Signal;HPM_P1;HPM_P2
2021/05/19 00:02:09;;;;;;;4.32;1.90;;;;;;;;;;5011215;28;20113;-61
2021/05/19 00:04:35;;;;;;;5.18;1.90;;;;;;;;;;5013262;28;20091;-61
2021/05/19 00:07:01;;;;;;;5.47;2.13;;;;;;;;;;5012274;28;20543;-61
2021/05/19 00:09:27;;;;;;;4.97;2.28;;;;;;;;;;5011316;28;20030;-61
2021/05/19 00:11:53;;;;;;;4.60;2.22;;;;;;;;;;5010931;28;20030;-61
2021/05/19 00:14:19;;;;;;;5.40;2.10;;;;;;;;;;5011399;28;20164;-61
2021/05/19 00:16:46;;;;;;;6.93;2.13;;;;;;;;;;5009878;28;20504;-61
2021/05/19 00:19:13;;;;;;;6.20;1.80;;;;;;;;;;5014397;28;20034;-61
2021/05/19 00:21:39;;;;;;;3.85;1.70;;;;;;;;;;5011196;28;20045;-61
2021/05/19 00:24:06;;;;;;;4.43;2.08;;;;;;;;;;5010645;28;20101;-62
2021/05/19 00:26:32;;;;;;;7.45;2.15;;;;;;;;;;5010595;28;20033;-62
2021/05/19 00:28:58;;;;;;;7.75;2.60;;;;;;;;;;5011065;28;20484;-61
2021/05/19 00:31:26;;;;;;;5.45;2.10;;;;;;;;;;5013232;28;20018;-61
2021/05/19 00:33:52;;;;;;;4.70;2.08;;;;;;;;;;5012161;28;20032;-61
2021/05/19 00:36:18;;;;;;;4.90;2.53;;;;;;;;;;5010924;28;20034;-61
2021/05/19 00:38:44;;;;;;;6.60;2.45;;;;;;;;;;5010232;28;20460;-61
2021/05/19 00:41:12;;;;;;;6.97;2.45;;;;;;;;;;5010822;28;20045;-61
2021/05/19 00:43:39;;;;;;;4.38;2.17;;;;;;;;;;5011893;28;20033;-61
2021/05/19 00:46:06;;;;;;;5.07;2.13;;;;;;;;;;5012631;28;20433;-61
2021/05/19 00:48:32;;;;;;;5.60;2.60;;;;;;;;;;5010790;28;20065;-61
2021/05/19 00:50:58;;;;;;;8.55;2.22;;;;;;;;;;5010117;28;20096;-61
2021/05/19 00:53:24;;;;;;;4.65;2.10;;;;;;;;;;5010416;28;20065;-61
2021/05/19 00:55:50;;;;;;;6.03;2.03;;;;;;;;;;5010233;28;20405;-61
2021/05/19 00:58:16;;;;;;;7.20;2.00;;;;;;;;;;5013890;28;20026;-61
2021/05/19 01:00:42;;;;;;;7.45;2.53;;;;;;;;;;5009824;28;20108;-61
2021/05/19 01:03:08;;;;;;;4.95;2.05;;;;;;;;;;5010211;28;20068;-61
2021/05/19 01:05:59;;;;;;;4.45;2.05;;;;;;;;;;5010081;28;20022;-61
2021/05/19 01:11:11;;;;;;;9.50;2.60;;;;;;;;;;5009793;28;20061;-61
2021/05/19 01:13:39;;;;;;;4.00;2.47;;;;;;;;;;5011761;28;20056;-61
2021/05/19 01:16:05;;;;;;;6.97;2.58;;;;;;;;;;5011504;28;20385;-61
2021/05/19 01:18:31;;;;;;;6.47;2.40;;;;;;;;;;5009805;28;20096;-61
2021/05/19 01:20:57;;;;;;;5.70;2.60;;;;;;;;;;5009459;28;20033;-61
2021/05/19 01:23:27;;;;;;;5.55;2.60;;;;;;;;;;5009599;28;20026;-61
2021/05/19 01:25:55;;;;;;;5.82;2.63;;;;;;;;;;5010122;28;20026;-61
2021/05/19 01:28:21;;;;;;;6.50;2.60;;;;;;;;;;5012312;28;20026;-61
2021/05/19 01:30:47;;;;;;;4.70;2.17;;;;;;;;;;5009535;28;20259;-61
2021/05/19 01:33:13;;;;;;;5.43;2.22;;;;;;;;;;5009599;28;20030;-61
2021/05/19 01:35:39;;;;;;;6.00;2.53;;;;;;;;;;5009587;28;20493;-61
2021/05/19 01:38:08;;;;;;;5.35;2.30;;;;;;;;;;5009442;28;20050;-61
2021/05/19 01:40:35;;;;;;;5.00;2.10;;;;;;;;;;5011600;28;20025;-61
2021/05/19 01:43:01;;;;;;;5.35;2.50;;;;;;;;;;5009791;28;20034;-61
2021/05/19 01:45:27;;;;;;;5.28;2.08;;;;;;;;;;5009362;28;20026;-61
2021/05/19 01:47:55;;;;;;;6.00;2.30;;;;;;;;;;5009285;28;20101;-61
2021/05/19 01:50:22;;;;;;;6.03;2.20;;;;;;;;;;5009176;28;20026;-61
2021/05/19 01:52:50;;;;;;;5.47;2.47;;;;;;;;;;4993671;28;20440;-61
2021/05/19 01:55:16;;;;;;;7.13;2.40;;;;;;;;;;5007871;28;20089;-61
2021/05/19 01:57:43;;;;;;;5.53;2.15;;;;;;;;;;5008883;28;20033;-61
2021/05/19 02:00:10;;;;;;;4.55;2.20;;;;;;;;;;5008423;28;20025;-61
2021/05/19 02:02:36;;;;;;;5.57;2.00;;;;;;;;;;5008641;28;20038;-61
2021/05/19 02:05:03;;;;;;;5.95;2.42;;;;;;;;;;5008477;28;20033;-61
2021/05/19 02:07:29;;;;;;;6.78;2.63;;;;;;;;;;5010349;28;20474;-61
2021/05/19 02:09:55;;;;;;;5.43;2.28;;;;;;;;;;5009745;28;20026;-61
2021/05/19 02:12:21;;;;;;;5.95;1.77;;;;;;;;;;5008771;28;20029;-61
2021/05/19 02:14:47;;;;;;;4.57;2.08;;;;;;;;;;5008639;28;20022;-61
2021/05/19 02:17:13;;;;;;;4.75;2.10;;;;;;;;;;5008494;28;20022;-61
2021/05/19 02:19:39;;;;;;;3.15;1.75;;;;;;;;;;5009808;28;20026;-61
2021/05/19 02:22:05;;;;;;;8.75;2.03;;;;;;;;;;5010011;28;20084;-61
2021/05/19 02:24:31;;;;;;;4.68;1.92;;;;;;;;;;5008153;28;20199;-61
2021/05/19 02:26:57;;;;;;;4.63;1.50;;;;;;;;;;5008177;28;20025;-61
2021/05/19 02:29:24;;;;;;;5.72;1.80;;;;;;;;;;5008472;28;20099;-61
2021/05/19 02:31:50;;;;;;;5.80;2.00;;;;;;;;;;5008580;28;20101;-61
2021/05/19 02:34:16;;;;;;;8.43;2.00;;;;;;;;;;5011693;28;20108;-62
2021/05/19 02:36:42;;;;;;;5.65;2.20;;;;;;;;;;5007687;28;20030;-61
2021/05/19 02:39:12;;;;;;;5.07;1.70;;;;;;;;;;5007958;28;20050;-61
2021/05/19 02:41:39;;;;;;;5.22;1.40;;;;;;;;;;5008219;28;20034;-61
2021/05/19 02:44:06;;;;;;;3.90;1.52;;;;;;;;;;5008178;28;20022;-61
2021/05/19 02:46:32;;;;;;;5.72;1.80;;;;;;;;;;5010248;28;20049;-61
2021/05/19 02:49:02;;;;;;;5.60;2.58;;;;;;;;;;5008801;28;20426;-61
2021/05/19 02:51:29;;;;;;;3.92;1.92;;;;;;;;;;5007601;28;20022;-61
2021/05/19 02:53:55;;;;;;;11.57;2.25;;;;;;;;;;5008082;28;20469;-61
2021/05/19 02:56:21;;;;;;;5.43;2.25;;;;;;;;;;5007675;28;20033;-61
2021/05/19 02:58:47;;;;;;;7.47;2.35;;;;;;;;;;5008161;28;20496;-61
2021/05/19 03:01:13;;;;;;;5.90;2.13;;;;;;;;;;5010981;28;20026;-61
2021/05/19 03:03:39;;;;;;;4.82;1.80;;;;;;;;;;5007868;28;20140;-61
2021/05/19 03:06:05;;;;;;;3.67;1.70;;;;;;;;;;5006812;28;20057;-61
2021/05/19 03:08:31;;;;;;;3.33;1.73;;;;;;;;;;5007770;28;20021;-61
2021/05/19 03:10:57;;;;;;;3.03;1.55;;;;;;;;;;5007597;28;20033;-61
2021/05/19 03:13:23;;;;;;;6.22;1.52;;;;;;;;;;5009839;28;20080;-62
2021/05/19 03:15:49;;;;;;;3.35;1.60;;;;;;;;;;5008101;28;20050;-61
2021/05/19 03:18:15;;;;;;;4.22;1.70;;;;;;;;;;5007146;28;20041;-61
2021/05/19 03:20:41;;;;;;;6.78;2.13;;;;;;;;;;5037208;28;20030;-60
2021/05/19 03:23:07;;;;;;;5.00;1.95;;;;;;;;;;5002468;28;20085;-60
2021/05/19 03:25:33;;;;;;;4.40;1.83;;;;;;;;;;5008012;28;20068;-61
2021/05/19 03:27:59;;;;;;;4.65;1.85;;;;;;;;;;5001607;28;20014;-60
2021/05/19 03:30:25;;;;;;;5.07;2.35;;;;;;;;;;5005342;28;20044;-60
2021/05/19 03:32:51;;;;;;;5.50;2.30;;;;;;;;;;5006449;28;20134;-60
2021/05/19 03:35:18;;;;;;;4.25;1.80;;;;;;;;;;5008870;28;20485;-60
2021/05/19 03:37:44;;;;;;;5.00;2.03;;;;;;;;;;5006486;28;20046;-60
2021/05/19 03:40:11;;;;;;;4.10;2.03;;;;;;;;;;5002531;28;20470;-60
2021/05/19 03:42:37;;;;;;;8.95;2.45;;;;;;;;;;5005916;28;20034;-60
2021/05/19 03:45:07;;;;;;;3.72;1.83;;;;;;;;;;5004013;28;20041;-60
2021/05/19 03:47:33;;;;;;;7.18;2.00;;;;;;;;;;5008977;28;20271;-60
2021/05/19 03:49:59;;;;;;;8.77;2.22;;;;;;;;;;5006694;28;20060;-60
2021/05/19 03:52:25;;;;;;;6.82;2.42;;;;;;;;;;5009370;28;20121;-60
2021/05/19 03:54:51;;;;;;;6.72;2.28;;;;;;;;;;5008178;28;20560;-60
2021/05/19 03:57:17;;;;;;;5.13;2.33;;;;;;;;;;5007084;28;20032;-60
2021/05/19 03:59:44;;;;;;;7.72;2.25;;;;;;;;;;5007367;28;20116;-60
2021/05/19 04:02:10;;;;;;;6.22;1.90;;;;;;;;;;5006907;28;20038;-60
2021/05/19 04:04:36;;;;;;;4.30;2.10;;;;;;;;;;5008843;28;20061;-60
2021/05/19 04:07:02;;;;;;;4.90;2.38;;;;;;;;;;5008828;28;20072;-60
2021/05/19 04:09:28;;;;;;;6.75;2.33;;;;;;;;;;5007215;28;20504;-60
2021/05/19 04:11:54;;;;;;;5.53;1.98;;;;;;;;;;5038739;28;20022;-60
2021/05/19 04:14:20;;;;;;;3.30;1.92;;;;;;;;;;5006959;28;20025;-60
2021/05/19 04:16:45;;;;;;;5.05;1.83;;;;;;;;;;5006776;28;20378;-60
2021/05/19 04:19:12;;;;;;;7.43;2.33;;;;;;;;;;5009813;28;20057;-60
2021/05/19 04:21:38;;;;;;;4.78;1.73;;;;;;;;;;5007107;28;20038;-60
2021/05/19 04:24:04;;;;;;;3.88;1.83;;;;;;;;;;5008960;28;20105;-60
2021/05/19 04:26:30;;;;;;;5.05;1.70;;;;;;;;;;5010941;28;20034;-60
2021/05/19 04:28:56;;;;;;;3.42;1.50;;;;;;;;;;5010643;28;20018;-60
2021/05/19 04:31:22;;;;;;;5.75;2.22;;;;;;;;;;5013788;28;20507;-60
2021/05/19 04:33:48;;;;;;;4.00;1.88;;;;;;;;;;5011412;28;20022;-60
2021/05/19 04:36:15;;;;;;;3.83;1.88;;;;;;;;;;5010524;28;20056;-60
2021/05/19 04:38:42;;;;;;;3.92;1.77;;;;;;;;;;5010213;28;20123;-60
2021/05/19 04:41:08;;;;;;;5.47;1.95;;;;;;;;;;5010946;28;20105;-60
2021/05/19 04:43:34;;;;;;;3.40;1.73;;;;;;;;;;5012996;28;20376;-60
2021/05/19 04:46:00;;;;;;;4.63;1.67;;;;;;;;;;5011827;28;20108;-60
2021/05/19 04:48:27;;;;;;;3.85;1.83;;;;;;;;;;5010864;28;20081;-60
2021/05/19 04:50:53;;;;;;;5.70;1.92;;;;;;;;;;5010552;28;20021;-60
2021/05/19 04:53:19;;;;;;;4.47;1.90;;;;;;;;;;5010583;28;20046;-60
2021/05/19 04:55:46;;;;;;;6.50;2.47;;;;;;;;;;4996795;28;20069;-60
2021/05/19 04:58:12;;;;;;;4.05;1.77;;;;;;;;;;5013191;28;20531;-60
2021/05/19 05:00:38;;;;;;;3.55;1.63;;;;;;;;;;5009523;28;20109;-60
2021/05/19 05:03:04;;;;;;;5.22;1.73;;;;;;;;;;5010053;28;20440;-60
2021/05/19 05:05:31;;;;;;;4.10;1.85;;;;;;;;;;5007359;28;20473;-60
2021/05/19 05:07:57;;;;;;;2.75;1.30;;;;;;;;;;5010060;28;20026;-61
2021/05/19 05:10:23;;;;;;;4.53;1.60;;;;;;;;;;4999624;28;20060;-61
2021/05/19 05:12:50;;;;;;;2.83;1.33;;;;;;;;;;5011068;28;20497;-61
2021/05/19 05:15:18;;;;;;;2.28;1.30;;;;;;;;;;5009598;28;20017;-61
2021/05/19 05:17:44;;;;;;;4.15;1.48;;;;;;;;;;5009803;28;20569;-59
2021/05/19 05:20:10;;;;;;;5.45;1.92;;;;;;;;;;5009862;28;20022;-62
2021/05/19 05:22:37;;;;;;;7.10;1.60;;;;;;;;;;5011641;28;20137;-62
2021/05/19 05:25:03;;;;;;;3.85;1.33;;;;;;;;;;5011207;28;20048;-61
2021/05/19 05:27:29;;;;;;;4.32;2.20;;;;;;;;;;5009356;28;20041;-61
2021/05/19 05:29:55;;;;;;;3.80;1.90;;;;;;;;;;5008995;28;20025;-61
2021/05/19 05:32:21;;;;;;;5.50;1.63;;;;;;;;;;5009447;28;20026;-61
2021/05/19 05:34:47;;;;;;;3.13;1.50;;;;;;;;;;5009044;28;20497;-61
2021/05/19 05:37:13;;;;;;;3.55;1.63;;;;;;;;;;5012402;28;20058;-61
2021/05/19 05:39:39;;;;;;;5.88;1.75;;;;;;;;;;5008831;28;20096;-61
2021/05/19 05:42:05;;;;;;;4.25;1.20;;;;;;;;;;5008856;28;20085;-61
2021/05/19 05:44:31;;;;;;;3.58;1.23;;;;;;;;;;5009190;28;20037;-62
2021/05/19 05:46:58;;;;;;;2.15;1.10;;;;;;;;;;5009119;28;20019;-61
2021/05/19 05:49:24;;;;;;;1.88;1.15;;;;;;;;;;5012135;28;20104;-62
2021/05/19 05:51:50;;;;;;;3.00;1.05;;;;;;;;;;5010643;28;20446;-62
2021/05/19 05:54:16;;;;;;;1.60;0.88;;;;;;;;;;5010161;28;20520;-62
2021/05/19 05:56:42;;;;;;;2.28;0.90;;;;;;;;;;5009781;28;21619;-62
2021/05/19 05:59:09;;;;;;;2.80;1.10;;;;;;;;;;5009636;28;20382;-61
2021/05/19 06:01:35;;;;;;;4.32;0.90;;;;;;;;;;5012139;28;20038;-62
2021/05/19 06:04:01;;;;;;;3.30;0.73;;;;;;;;;;5011244;28;20029;-62
2021/05/19 06:06:27;;;;;;;1.73;0.70;;;;;;;;;;5009284;28;20124;-62
2021/05/19 06:08:53;;;;;;;1.55;0.68;;;;;;;;;;5009840;28;20013;-62
2021/05/19 06:11:19;;;;;;;2.08;0.63;;;;;;;;;;5009551;28;20026;-62
2021/05/19 06:13:45;;;;;;;1.33;0.70;;;;;;;;;;5009883;28;20033;-62
2021/05/19 06:16:12;;;;;;;1.15;0.55;;;;;;;;;;5019789;28;20094;-62
2021/05/19 06:18:38;;;;;;;1.30;0.77;;;;;;;;;;5010596;28;20036;-61
2021/05/19 06:21:04;;;;;;;1.67;0.50;;;;;;;;;;5008796;28;20029;-61
2021/05/19 06:23:30;;;;;;;1.75;0.60;;;;;;;;;;5009308;28;20077;-62
2021/05/19 06:25:56;;;;;;;0.77;0.40;;;;;;;;;;5009211;28;20583;-62
2021/05/19 06:28:22;;;;;;;2.65;0.55;;;;;;;;;;5011925;28;20057;-61
2021/05/19 06:30:48;;;;;;;0.20;0.20;;;;;;;;;;5009742;28;20030;-62
2021/05/19 06:33:14;;;;;;;1.45;0.80;;;;;;;;;;5008478;28;20037;-61
2021/05/19 06:35:40;;;;;;;1.15;0.10;;;;;;;;;;5008869;28;20037;-61
2021/05/19 06:38:06;;;;;;;0.32;0.17;;;;;;;;;;5009082;28;20050;-61
2021/05/19 06:40:32;;;;;;;0.88;0.30;;;;;;;;;;5011318;28;20030;-61
2021/05/19 06:42:58;;;;;;;0.10;0.10;;;;;;;;;;5009303;28;20037;-61
2021/05/19 06:45:24;;;;;;;0.20;0.15;;;;;;;;;;5009021;28;20058;-61
2021/05/19 06:47:52;;;;;;;0.10;0.10;;;;;;;;;;5007898;28;20022;-61
2021/05/19 06:50:18;;;;;;;0.17;0.13;;;;;;;;;;5008897;28;20446;-61
2021/05/19 06:52:44;;;;;;;0.10;0.05;;;;;;;;;;5009682;28;20034;-61
2021/05/19 06:55:12;;;;;;;1.80;0.20;;;;;;;;;;5011367;28;20026;-61
2021/05/19 06:57:38;;;;;;;0.30;0.13;;;;;;;;;;5008006;28;20029;-61
2021/05/19 07:00:08;;;;;;;0.43;0.20;;;;;;;;;;5008750;28;20026;-61
2021/05/19 07:02:34;;;;;;;0.10;0.10;;;;;;;;;;5007921;28;20022;-62
2021/05/19 07:05:00;;;;;;;0.90;0.10;;;;;;;;;;5008516;28;20066;-61
2021/05/19 07:07:26;;;;;;;0.47;0.38;;;;;;;;;;5010928;28;20030;-61
2021/05/19 07:09:52;;;;;;;0.10;0.10;;;;;;;;;;5009711;28;20025;-61
2021/05/19 07:12:18;;;;;;;0.10;0.10;;;;;;;;;;5007960;28;20448;-61
2021/05/19 07:14:49;;;;;;;0.20;0.20;;;;;;;;;;5007749;28;20113;-61
2021/05/19 07:17:15;;;;;;;1.35;0.10;;;;;;;;;;5008438;28;20026;-61
2021/05/19 07:19:41;;;;;;;0.30;0.13;;;;;;;;;;5009179;28;20033;-61
2021/05/19 07:22:07;;;;;;;0.43;0.10;;;;;;;;;;5010389;28;20390;-61
2021/05/19 07:24:33;;;;;;;2.78;0.20;;;;;;;;;;5039853;28;20381;-61
2021/05/19 07:26:59;;;;;;;0.10;0.10;;;;;;;;;;5007766;28;20026;-61
2021/05/19 07:29:25;;;;;;;0.00;0.00;;;;;;;;;;5008519;28;20119;-61
2021/05/19 07:31:51;;;;;;;0.10;0.10;;;;;;;;;;5008509;28;20041;-61
2021/05/19 07:34:17;;;;;;;0.98;0.25;;;;;;;;;;5010696;28;20171;-61
2021/05/19 07:36:43;;;;;;;0.85;0.10;;;;;;;;;;5008053;28;20113;-61
2021/05/19 07:39:10;;;;;;;0.20;0.20;;;;;;;;;;5008071;28;20188;-61
2021/05/19 07:41:36;;;;;;;0.75;0.30;;;;;;;;;;5007856;28;20034;-61
2021/05/19 07:44:03;;;;;;;0.93;0.20;;;;;;;;;;5007568;28;20046;-61
2021/05/19 07:46:29;;;;;;;0.80;0.20;;;;;;;;;;5010431;28;20540;-61
2021/05/19 07:48:54;;;;;;;0.20;0.20;;;;;;;;;;5009302;28;20101;-61
2021/05/19 07:51:21;;;;;;;0.63;0.20;;;;;;;;;;5008019;28;20034;-61
2021/05/19 07:53:47;;;;;;;0.10;0.10;;;;;;;;;;5006410;28;20036;-61
2021/05/19 07:56:22;;;;;;;0.45;0.10;;;;;;;;;;5007630;28;20489;-61
2021/05/19 07:58:58;;;;;;;0.10;0.10;;;;;;;;;;4994474;28;20401;-61
2021/05/19 08:01:31;;;;;;;0.20;0.20;;;;;;;;;;5014571;28;20018;-62
2021/05/19 08:03:57;;;;;;;0.43;0.10;;;;;;;;;;5011220;28;20032;-61
2021/05/19 08:06:23;;;;;;;0.43;0.20;;;;;;;;;;5012944;28;20026;-61
2021/05/19 08:08:49;;;;;;;1.80;0.32;;;;;;;;;;5011279;28;20025;-61
2021/05/19 08:11:16;;;;;;;0.20;0.20;;;;;;;;;;5011574;28;20469;-61
2021/05/19 08:13:42;;;;;;;0.13;0.10;;;;;;;;;;5012682;28;20033;-61
2021/05/19 08:16:08;;;;;;;0.28;0.20;;;;;;;;;;5013800;28;20022;-61
2021/05/19 08:18:35;;;;;;;0.60;0.20;;;;;;;;;;5011155;28;20116;-61
2021/05/19 08:21:01;;;;;;;0.30;0.10;;;;;;;;;;5011562;28;20444;-61
2021/05/19 08:23:27;;;;;;;0.40;0.20;;;;;;;;;;5010537;28;20032;-61
2021/05/19 08:25:53;;;;;;;2.30;0.20;;;;;;;;;;5011116;28;20018;-61
2021/05/19 08:28:19;;;;;;;0.20;0.10;;;;;;;;;;5014346;28;20428;-61
2021/05/19 08:30:45;;;;;;;0.25;0.20;;;;;;;;;;5011469;28;20029;-61
2021/05/19 08:33:11;;;;;;;0.20;0.20;;;;;;;;;;5011251;28;20025;-61
2021/05/19 08:35:37;;;;;;;0.50;0.20;;;;;;;;;;5010810;28;20022;-61
2021/05/19 08:38:03;;;;;;;0.30;0.20;;;;;;;;;;5010504;28;20403;-61
2021/05/19 08:40:29;;;;;;;0.20;0.20;;;;;;;;;;5012952;28;20031;-61
2021/05/19 08:42:56;;;;;;;0.10;0.10;;;;;;;;;;5011916;28;20044;-61
2021/05/19 08:45:22;;;;;;;0.20;0.10;;;;;;;;;;5010781;28;20054;-61
2021/05/19 08:47:48;;;;;;;0.10;0.10;;;;;;;;;;5042543;28;20053;-61
2021/05/19 08:50:15;;;;;;;0.25;0.20;;;;;;;;;;5011312;28;20048;-61
2021/05/19 08:52:43;;;;;;;0.15;0.10;;;;;;;;;;5012005;28;20042;-61
2021/05/19 08:55:10;;;;;;;0.17;0.17;;;;;;;;;;5013030;28;20116;-61
2021/05/19 08:57:39;;;;;;;0.20;0.20;;;;;;;;;;5010677;28;20042;-61
2021/05/19 09:00:07;;;;;;;0.50;0.22;;;;;;;;;;5010594;28;20477;-61
2021/05/19 09:02:32;;;;;;;;;;;;;;;;;;5010772;28;20401;-61
2021/05/19 09:04:59;;;;;;;0.20;0.20;;;;;;;;;;5010386;28;19910;-61
2021/05/19 09:07:25;;;;;;;0.70;0.43;;;;;;;;;;5013150;28;20029;-61
2021/05/19 09:09:51;;;;;;;0.20;0.20;;;;;;;;;;5010963;28;20026;-61
2021/05/19 09:12:18;;;;;;;2.08;0.25;;;;;;;;;;5009946;28;20025;-61
2021/05/19 09:15:01;;;;;;;0.50;0.30;;;;;;;;;;5010296;28;20033;-61
2021/05/19 09:17:27;;;;;;;2.92;0.50;;;;;;;;;;5041695;28;20029;-61
2021/05/19 09:20:08;;;;;;;0.30;0.30;;;;;;;;;;5010229;28;20101;-61
2021/05/19 09:22:35;;;;;;;0.40;0.25;;;;;;;;;;5011201;28;20041;-61
2021/05/19 09:25:02;;;;;;;1.07;0.30;;;;;;;;;;5009973;28;20033;-61
2021/05/19 09:27:41;;;;;;;0.38;0.20;;;;;;;;;;5009699;28;20148;-61
2021/05/19 09:30:07;;;;;;;0.90;0.28;;;;;;;;;;5009559;28;20362;-61
2021/05/19 09:32:37;;;;;;;0.40;0.20;;;;;;;;;;5010044;28;20033;-61
2021/05/19 09:35:03;;;;;;;0.17;0.10;;;;;;;;;;5041565;28;20386;-61
2021/05/19 09:37:30;;;;;;;2.25;0.30;;;;;;;;;;5011860;28;20100;-61
2021/05/19 09:39:59;;;;;;;0.20;0.20;;;;;;;;;;5010987;28;20124;-61
2021/05/19 09:42:25;;;;;;;0.10;0.10;;;;;;;;;;5009248;28;20508;-61
2021/05/19 09:44:51;;;;;;;0.03;0.03;;;;;;;;;;5008823;28;20013;-61
2021/05/19 09:47:56;;;;;;;0.15;0.15;;;;;;;;;;5009275;28;20072;-61
2021/05/19 09:50:23;;;;;;;0.30;0.30;;;;;;;;;;4939658;28;20138;-61
2021/05/19 09:53:01;;;;;;;0.55;0.20;;;;;;;;;;4935764;28;20139;-60
2021/05/19 09:55:27;;;;;;;0.20;0.20;;;;;;;;;;4981888;28;20044;-61
2021/05/19 09:57:54;;;;;;;1.48;0.30;;;;;;;;;;5010403;28;20026;-60
2021/05/19 10:00:21;;;;;;;0.77;0.35;;;;;;;;;;5006344;28;20254;-60
2021/05/19 10:02:48;;;;;;;0.45;0.20;;;;;;;;;;5006093;28;20072;-60
2021/05/19 10:05:21;;;;;;;1.75;0.20;;;;;;;;;;5003615;28;20096;-60
2021/05/19 10:07:47;;;;;;;1.33;0.20;;;;;;;;;;5008615;28;20034;-60
2021/05/19 10:10:13;;;;;;;0.20;0.20;;;;;;;;;;5010406;28;20080;-59
2021/05/19 10:12:40;;;;;;;0.10;0.10;;;;;;;;;;5007606;28;20058;-60
2021/05/19 10:15:10;;;;;;;0.10;0.10;;;;;;;;;;5003440;28;20033;-60
2021/05/19 10:17:43;;;;;;;0.32;0.20;;;;;;;;;;5004995;28;20036;-60
2021/05/19 10:20:12;;;;;;;2.50;0.38;;;;;;;;;;5008824;28;20489;-60
2021/05/19 10:22:43;;;;;;;1.55;0.20;;;;;;;;;;5009787;28;20094;-60
2021/05/19 10:25:19;;;;;;;1.52;0.20;;;;;;;;;;5011393;28;20052;-60
2021/05/19 10:27:50;;;;;;;1.42;0.30;;;;;;;;;;5009426;28;20033;-60
2021/05/19 10:30:34;;;;;;;0.40;0.20;;;;;;;;;;5006580;28;20452;-60
2021/05/19 10:33:00;;;;;;;1.35;0.30;;;;;;;;;;5004155;28;20034;-60
2021/05/19 10:35:33;;;;;;;1.25;0.28;;;;;;;;;;5007330;28;20046;-59
2021/05/19 10:38:15;;;;;;;0.30;0.20;;;;;;;;;;5007659;28;20042;-60
2021/05/19 10:40:48;;;;;;;0.50;0.30;;;;;;;;;;5003388;28;20064;-60
2021/05/19 10:43:14;;;;;;;3.10;0.20;;;;;;;;;;5004528;28;20041;-60
2021/05/19 10:45:56;;;;;;;0.50;0.20;;;;;;;;;;5005910;28;20160;-61
2021/05/19 10:48:27;;;;;;;0.70;0.30;;;;;;;;;;5007091;28;20033;-60
2021/05/19 10:51:00;;;;;;;2.40;0.30;;;;;;;;;;5007088;28;20033;-60
2021/05/19 10:59:12;;;;;;;1.35;0.30;;;;;;;;;;5000301;28;20064;-60
2021/05/19 11:01:38;;;;;;;0.93;0.40;;;;;;;;;;5008701;28;20069;-60
2021/05/19 11:04:17;;;;;;;0.30;0.20;;;;;;;;;;5006267;28;20029;-60
2021/05/19 11:07:02;;;;;;;1.92;0.35;;;;;;;;;;5001892;28;20304;-60
2021/05/19 11:09:29;;;;;;;0.35;0.25;;;;;;;;;;5005480;28;20030;-61
2021/05/19 11:12:13;;;;;;;0.65;0.30;;;;;;;;;;5007093;28;20022;-60
2021/05/19 11:20:08;;;;;;;0.57;0.30;;;;;;;;;;4994093;28;20347;-62
2021/05/19 11:22:34;;;;;;;0.70;0.20;;;;;;;;;;5006145;28;20026;-60
2021/05/19 11:25:01;;;;;;;0.40;0.17;;;;;;;;;;5006360;28;20030;-60
2021/05/19 11:27:29;;;;;;;0.30;0.30;;;;;;;;;;4992176;28;20104;-59
2021/05/19 11:29:55;;;;;;;0.38;0.30;;;;;;;;;;5006184;28;20022;-63
2021/05/19 11:32:25;;;;;;;0.38;0.30;;;;;;;;;;5006776;28;20124;-60
2021/05/19 11:34:52;;;;;;;1.75;0.30;;;;;;;;;;4999495;28;20022;-61
2021/05/19 11:37:18;;;;;;;0.32;0.28;;;;;;;;;;5013433;28;20487;-61
2021/05/19 11:39:53;;;;;;;0.65;0.22;;;;;;;;;;5000694;28;20030;-61
2021/05/19 11:42:23;;;;;;;0.77;0.20;;;;;;;;;;5011774;28;20042;-63
2021/05/19 11:44:50;;;;;;;0.43;0.20;;;;;;;;;;5012420;28;20018;-64
2021/05/19 11:47:21;;;;;;;1.27;0.40;;;;;;;;;;5010618;28;20029;-62
2021/05/19 11:49:47;;;;;;;0.30;0.20;;;;;;;;;;5012364;28;20030;-62
2021/05/19 11:52:13;;;;;;;1.27;0.30;;;;;;;;;;5014344;28;20026;-64
2021/05/19 11:54:41;;;;;;;1.05;0.28;;;;;;;;;;5011823;28;20033;-64
2021/05/19 11:57:07;;;;;;;1.50;0.40;;;;;;;;;;5011808;28;20034;-61
2021/05/19 11:59:36;;;;;;;1.27;0.22;;;;;;;;;;5011283;28;20100;-64
2021/05/19 12:02:03;;;;;;;1.65;0.50;;;;;;;;;;5011815;28;20034;-62
2021/05/19 12:04:31;;;;;;;0.40;0.20;;;;;;;;;;5013572;28;20528;-62
2021/05/19 12:06:59;;;;;;;2.60;0.60;;;;;;;;;;5012758;28;20022;-62
2021/05/19 12:09:28;;;;;;;2.63;0.40;;;;;;;;;;5011168;28;20062;-61
2021/05/19 12:11:57;;;;;;;0.50;0.40;;;;;;;;;;5011554;28;20345;-62
2021/05/19 12:14:22;;;;;;;;;;;;;;;;;;5012445;28;20030;-63
2021/05/19 12:16:49;;;;;;;2.17;0.50;;;;;;;;;;5011599;28;20647;-63
2021/05/19 12:19:16;;;;;;;0.60;0.20;;;;;;;;;;5014761;28;20033;-62
2021/05/19 12:21:44;;;;;;;0.30;0.20;;;;;;;;;;5010681;28;20042;-62
2021/05/19 12:24:11;;;;;;;0.35;0.20;;;;;;;;;;5011216;28;20702;-61
2021/05/19 12:26:37;;;;;;;1.63;0.38;;;;;;;;;;5011218;28;20048;-60
2021/05/19 12:29:22;;;;;;;0.57;0.20;;;;;;;;;;5011377;28;20472;-60
2021/05/19 12:31:48;;;;;;;1.27;0.40;;;;;;;;;;4995564;28;20465;-60
2021/05/19 12:34:15;;;;;;;0.20;0.20;;;;;;;;;;5013840;28;20029;-59
2021/05/19 12:36:41;;;;;;;0.17;0.17;;;;;;;;;;5010998;28;20030;-60
2021/05/19 12:39:08;;;;;;;0.30;0.20;;;;;;;;;;5010936;28;20354;-60
2021/05/19 12:41:45;;;;;;;0.40;0.30;;;;;;;;;;5011050;28;20087;-60
2021/05/19 12:44:12;;;;;;;0.83;0.20;;;;;;;;;;5010087;28;20390;-61
2021/05/19 12:46:38;;;;;;;1.37;0.30;;;;;;;;;;5012764;28;20326;-64
2021/05/19 12:49:14;;;;;;;1.10;0.32;;;;;;;;;;5027495;28;20026;-63
2021/05/19 12:51:49;;;;;;;1.27;0.40;;;;;;;;;;5010315;28;20030;-63
2021/05/19 12:54:21;;;;;;;0.38;0.20;;;;;;;;;;5009987;28;20033;-63
2021/05/19 12:56:57;;;;;;;0.57;0.30;;;;;;;;;;5009861;28;20480;-63
2021/05/19 12:59:23;;;;;;;0.93;0.10;;;;;;;;;;5008736;28;20026;-63
2021/05/19 13:01:49;;;;;;;0.93;0.30;;;;;;;;;;5009761;28;20065;-64
2021/05/19 13:04:16;;;;;;;0.28;0.20;;;;;;;;;;5012734;28;20100;-63
2021/05/19 13:06:42;;;;;;;0.15;0.15;;;;;;;;;;5009778;28;20030;-64
2021/05/19 13:09:14;;;;;;;0.30;0.30;;;;;;;;;;5009922;28;20049;-61
2021/05/19 13:11:47;;;;;;;0.45;0.20;;;;;;;;;;5010269;28;20044;-62
2021/05/19 13:14:28;;;;;;;0.70;0.22;;;;;;;;;;5010375;28;20022;-61
2021/05/19 13:16:55;;;;;;;0.88;0.40;;;;;;;;;;5005039;28;20032;-61
2021/05/19 13:19:23;;;;;;;0.20;0.20;;;;;;;;;;5012980;28;20022;-62
2021/05/19 13:21:52;;;;;;;0.82;0.32;;;;;;;;;;5006541;28;20120;-61
2021/05/19 13:24:21;;;;;;;0.55;0.32;;;;;;;;;;5011173;28;20021;-62
2021/05/19 13:27:01;;;;;;;0.52;0.30;;;;;;;;;;5004892;28;20028;-61
2021/05/19 13:29:28;;;;;;;0.50;0.20;;;;;;;;;;5008956;28;20102;-61
2021/05/19 13:32:07;;;;;;;1.80;0.30;;;;;;;;;;5009295;28;20281;-61
2021/05/19 13:37:02;;;;;;;0.25;0.20;;;;;;;;;;5004378;28;20089;-61
2021/05/19 13:39:29;;;;;;;0.95;0.20;;;;;;;;;;5008552;28;20074;-62
2021/05/19 13:41:56;;;;;;;0.22;0.22;;;;;;;;;;5009836;28;20038;-61
2021/05/19 13:44:23;;;;;;;0.28;0.10;;;;;;;;;;5008941;28;20036;-61
2021/05/19 13:46:50;;;;;;;0.20;0.20;;;;;;;;;;4996583;28;20109;-65
2021/05/19 13:49:27;;;;;;;0.57;0.43;;;;;;;;;;5011810;28;20076;-65
2021/05/19 13:51:58;;;;;;;0.68;0.30;;;;;;;;;;5011637;28;20358;-65
2021/05/19 13:54:24;;;;;;;0.10;0.10;;;;;;;;;;5009209;28;20080;-63
2021/05/19 13:56:50;;;;;;;1.15;0.40;;;;;;;;;;5008670;28;20026;-60
2021/05/19 13:59:17;;;;;;;1.27;0.30;;;;;;;;;;5009204;28;20072;-61
2021/05/19 14:01:43;;;;;;;0.10;0.10;;;;;;;;;;5007205;28;20041;-63
2021/05/19 14:04:09;;;;;;;0.10;0.10;;;;;;;;;;5010959;28;20022;-62
2021/05/19 14:06:36;;;;;;;0.75;0.20;;;;;;;;;;5009344;28;20034;-61
2021/05/19 14:09:05;;;;;;;0.40;0.20;;;;;;;;;;5006930;28;20125;-62
2021/05/19 14:11:32;;;;;;;0.20;0.20;;;;;;;;;;5008336;28;20026;-61
2021/05/19 14:16:48;;;;;;;0.10;0.10;;;;;;;;;;5012040;28;20026;-60
2021/05/19 14:27:29;;;;;;;0.45;0.20;;;;;;;;;;5008680;28;20392;-60
2021/05/19 14:29:55;;;;;;;0.10;0.10;;;;;;;;;;5008444;28;20061;-60
2021/05/19 14:32:21;;;;;;;0.20;0.17;;;;;;;;;;5008353;28;20049;-61
2021/05/19 14:34:50;;;;;;;0.60;0.15;;;;;;;;;;5009616;28;20033;-62
2021/05/19 15:01:43;;;;;;;0.82;0.20;;;;;;;;;;5008841;28;20030;-63
2021/05/19 15:04:09;;;;;;;0.40;0.20;;;;;;;;;;5010026;28;20446;-63
2021/05/19 15:06:35;;;;;;;0.20;0.20;;;;;;;;;;5007875;28;20056;-63
2021/05/19 15:09:03;;;;;;;1.33;0.30;;;;;;;;;;5007941;28;20030;-63
2021/05/19 15:11:29;;;;;;;0.22;0.20;;;;;;;;;;5007983;28;20029;-63
2021/05/19 15:13:55;;;;;;;0.28;0.20;;;;;;;;;;5008199;28;20049;-62
2021/05/19 15:16:21;;;;;;;0.40;0.20;;;;;;;;;;5011245;28;20468;-63
2021/05/19 15:18:48;;;;;;;0.38;0.30;;;;;;;;;;5009715;28;20030;-62
2021/05/19 15:21:14;;;;;;;0.15;0.15;;;;;;;;;;5007909;28;20074;-63
2021/05/19 15:23:40;;;;;;;0.20;0.20;;;;;;;;;;5007923;28;20041;-62
2021/05/19 15:26:06;;;;;;;0.45;0.20;;;;;;;;;;5007876;28;20022;-63
2021/05/19 15:28:32;;;;;;;0.47;0.25;;;;;;;;;;5009970;28;20076;-62
2021/05/19 15:30:58;;;;;;;0.10;0.10;;;;;;;;;;5008687;28;20049;-62
2021/05/19 15:33:25;;;;;;;1.67;0.25;;;;;;;;;;5007097;28;20034;-63
2021/05/19 15:35:51;;;;;;;0.20;0.20;;;;;;;;;;5008254;28;20080;-63
2021/05/19 15:38:18;;;;;;;0.17;0.17;;;;;;;;;;5007929;28;20057;-63